createdAt,value
2024-02-29T00:00:34.090Z,50.54
2024-02-29T00:01:34.074Z,50.47
2024-02-29T00:02:34.061Z,51.99
2024-02-29T00:03:34.132Z,50.00
2024-02-29T00:04:34.167Z,52.50
2024-02-29T00:05:34.182Z,51.72
2024-02-29T00:06:34.229Z,52.11
2024-02-29T00:07:34.241Z,50.62
2024-02-29T00:08:34.287Z,51.65
2024-02-29T00:09:34.378Z,52.84
2024-02-29T00:10:34.364Z,53.74
2024-02-29T00:11:34.471Z,50.73
2024-02-29T00:12:34.439Z,53.06
2024-02-29T00:13:34.469Z,51.05
2024-02-29T00:14:34.534Z,50.95
2024-02-29T00:15:34.689Z,52.44
2024-02-29T00:16:34.617Z,50.99
2024-02-29T00:17:34.772Z,52.86
2024-02-29T00:18:34.761Z,52.24
2024-02-29T00:19:34.733Z,53.64
2024-02-29T00:20:34.791Z,50.31
2024-02-29T00:21:34.877Z,50.93
2024-02-29T00:22:34.881Z,50.87
2024-02-29T00:23:34.931Z,52.24
2024-02-29T00:24:37.411Z,50.31
2024-02-29T00:25:35.057Z,52.08
2024-02-29T00:26:35.084Z,53.47
2024-02-29T00:27:35.265Z,55.56
2024-02-29T00:28:35.186Z,52.58
2024-02-29T00:29:35.213Z,54.42
2024-02-29T00:30:35.336Z,55.79
2024-02-29T00:31:35.302Z,53.19
2024-02-29T00:32:35.585Z,56.20
2024-02-29T00:33:35.413Z,54.74
2024-02-29T00:34:35.406Z,55.93
2024-02-29T00:35:35.443Z,63.40
2024-02-29T00:36:35.596Z,60.46
2024-02-29T00:37:35.513Z,60.37
2024-02-29T00:38:35.541Z,61.33
2024-02-29T00:39:35.596Z,71.00
2024-02-29T00:40:35.599Z,70.57
2024-02-29T00:41:35.622Z,69.63
2024-02-29T00:42:35.656Z,67.53
2024-02-29T00:43:35.666Z,69.19
2024-02-29T00:44:35.653Z,66.60
2024-02-29T00:45:35.710Z,69.20
2024-02-29T00:46:35.675Z,64.92
2024-02-29T00:47:35.772Z,68.79
2024-02-29T00:48:35.763Z,64.70
2024-02-29T00:49:35.767Z,64.50
2024-02-29T00:50:35.792Z,66.26
2024-02-29T00:51:35.873Z,62.23
2024-02-29T00:52:35.831Z,60.94
2024-02-29T00:53:35.879Z,65.18
2024-02-29T00:54:35.977Z,63.68
2024-02-29T00:55:36.013Z,63.45
2024-02-29T00:56:36.078Z,63.54
2024-02-29T00:57:36.163Z,67.30
2024-02-29T00:58:36.231Z,63.84
2024-02-29T00:59:36.288Z,64.24
2024-02-29T01:00:36.437Z,62.00
2024-02-29T01:01:36.491Z,63.83
2024-02-29T01:02:36.500Z,61.94
2024-02-29T01:03:36.607Z,64.78
2024-02-29T01:04:36.615Z,62.29
2024-02-29T01:05:36.674Z,65.26
2024-02-29T01:06:36.747Z,67.09
2024-02-29T01:07:36.735Z,66.45
2024-02-29T01:08:36.871Z,67.51
2024-02-29T01:09:36.869Z,63.81
2024-02-29T01:10:36.850Z,66.42
2024-02-29T01:11:36.880Z,63.14
2024-02-29T01:12:36.957Z,65.68
2024-02-29T01:13:36.971Z,62.83
2024-02-29T01:14:37.014Z,65.27
2024-02-29T01:15:37.056Z,64.77
2024-02-29T01:16:37.083Z,62.91
2024-02-29T01:17:37.113Z,61.71
2024-02-29T01:18:37.168Z,67.41
2024-02-29T01:19:37.167Z,62.56
2024-02-29T01:20:37.204Z,60.42
2024-02-29T01:21:37.269Z,62.07
2024-02-29T01:22:37.256Z,56.99
2024-02-29T01:23:37.272Z,58.28
2024-02-29T01:24:37.336Z,55.09
2024-02-29T01:25:37.332Z,62.05
2024-02-29T01:26:37.360Z,59.82
2024-02-29T01:27:37.493Z,63.13
2024-02-29T01:28:37.415Z,63.78
2024-02-29T01:29:37.434Z,60.24
2024-02-29T01:30:37.479Z,58.19
2024-02-29T01:31:37.476Z,58.49
2024-02-29T01:32:38.043Z,59.54
2024-02-29T01:33:37.570Z,56.21
2024-02-29T01:34:58.546Z,55.90
2024-02-29T01:35:37.555Z,56.09
2024-02-29T01:36:37.555Z,56.59
2024-02-29T01:37:37.543Z,56.99
2024-02-29T01:38:37.611Z,57.73
2024-02-29T01:39:37.747Z,58.98
2024-02-29T01:40:37.543Z,54.62
2024-02-29T01:41:37.527Z,54.47
2024-02-29T01:42:37.551Z,58.43
2024-02-29T01:43:37.527Z,58.06
2024-02-29T01:44:37.558Z,56.49
2024-02-29T01:45:37.558Z,58.63
2024-02-29T01:46:37.530Z,59.85
2024-02-29T01:47:37.562Z,60.12
2024-02-29T01:48:37.585Z,58.23
2024-02-29T01:49:37.533Z,56.44
2024-02-29T01:50:37.548Z,51.73
2024-02-29T01:51:37.582Z,59.71
2024-02-29T01:52:37.558Z,56.24
2024-02-29T01:53:37.557Z,55.38
2024-02-29T01:54:37.579Z,59.00
2024-02-29T01:55:37.544Z,55.78
2024-02-29T01:56:37.550Z,53.92
2024-02-29T01:57:37.565Z,51.27
2024-02-29T01:58:37.556Z,50.31
2024-02-29T01:59:37.554Z,50.00
2024-02-29T02:00:37.655Z,54.12
2024-02-29T02:01:37.612Z,52.86
2024-02-29T02:02:37.557Z,56.33
2024-02-29T02:03:37.583Z,57.06
2024-02-29T02:04:37.570Z,55.32
2024-02-29T02:05:37.561Z,54.05
2024-02-29T02:06:37.589Z,55.37
2024-02-29T02:07:37.555Z,53.63
2024-02-29T02:08:37.673Z,53.54
2024-02-29T02:09:37.602Z,51.59
2024-02-29T02:10:37.572Z,54.46
2024-02-29T02:11:37.580Z,57.86
2024-02-29T02:12:37.793Z,56.47
2024-02-29T02:13:37.566Z,53.94
2024-02-29T02:14:37.566Z,54.84
2024-02-29T02:15:37.590Z,56.23
2024-02-29T02:16:37.565Z,57.17
2024-02-29T02:17:37.592Z,56.72
2024-02-29T02:18:37.609Z,53.41
2024-02-29T02:19:37.561Z,53.43
2024-02-29T02:20:37.563Z,50.59
2024-02-29T02:21:37.579Z,53.92
2024-02-29T02:22:37.558Z,51.75
2024-02-29T02:23:37.572Z,53.62
2024-02-29T02:24:37.605Z,53.47
2024-02-29T02:25:37.564Z,55.61
2024-02-29T02:26:37.570Z,51.33
2024-02-29T02:27:37.601Z,55.52
2024-02-29T02:28:37.566Z,52.23
2024-02-29T02:29:37.556Z,58.58
2024-02-29T02:30:37.587Z,55.51
2024-02-29T02:31:37.564Z,55.60
2024-02-29T02:32:37.594Z,51.48
2024-02-29T02:33:37.570Z,53.37
2024-02-29T02:34:37.575Z,55.78
2024-02-29T02:35:37.563Z,53.68
2024-02-29T02:36:37.702Z,54.03
2024-02-29T02:37:37.650Z,54.58
2024-02-29T02:38:37.724Z,52.32
2024-02-29T02:39:37.815Z,50.78
2024-02-29T02:40:37.855Z,51.94
2024-02-29T02:41:37.913Z,54.14
2024-02-29T02:42:38.040Z,55.24
2024-02-29T02:43:38.050Z,50.48
2024-02-29T02:44:38.133Z,50.72
2024-02-29T02:45:38.209Z,50.00
2024-02-29T02:46:38.255Z,53.55
2024-02-29T02:47:38.376Z,56.55
2024-02-29T02:48:38.418Z,53.54
2024-02-29T02:49:38.470Z,55.12
2024-02-29T02:50:38.607Z,53.97
2024-02-29T02:51:38.615Z,52.91
2024-02-29T02:52:38.655Z,54.59
2024-02-29T02:53:38.708Z,54.22
2024-02-29T02:54:38.793Z,52.76
2024-02-29T02:55:38.837Z,54.38
2024-02-29T02:56:38.901Z,53.58
2024-02-29T02:57:38.995Z,54.76
2024-02-29T02:58:39.065Z,52.30
2024-02-29T02:59:39.114Z,53.25
2024-02-29T03:00:39.361Z,53.32
2024-02-29T03:01:39.272Z,53.27
2024-02-29T03:02:39.317Z,53.04
2024-02-29T03:03:39.394Z,54.84
2024-02-29T03:04:39.457Z,54.80
2024-02-29T03:05:39.502Z,51.56
2024-02-29T03:06:39.597Z,53.95
2024-02-29T03:07:39.935Z,50.93
2024-02-29T03:08:39.690Z,53.26
2024-02-29T03:09:39.775Z,52.50
2024-02-29T03:10:39.819Z,53.01
2024-02-29T03:11:39.882Z,50.56
2024-02-29T03:12:40.041Z,52.53
2024-02-29T03:13:39.983Z,50.00
2024-02-29T03:14:40.064Z,51.63
2024-02-29T03:15:40.149Z,50.67
2024-02-29T03:16:40.760Z,57.71
2024-02-29T03:17:40.283Z,53.95
2024-02-29T03:18:40.424Z,51.18
2024-02-29T03:19:40.445Z,54.79
2024-02-29T03:20:40.476Z,53.33
2024-02-29T03:21:40.623Z,56.43
2024-02-29T03:22:40.632Z,52.80
2024-02-29T03:23:40.706Z,55.28
2024-02-29T03:24:40.815Z,54.76
2024-02-29T03:25:40.843Z,50.19
2024-02-29T03:26:40.898Z,55.42
2024-02-29T03:27:40.949Z,53.91
2024-02-29T03:28:41.036Z,51.65
2024-02-29T03:29:41.057Z,52.90
2024-02-29T03:30:41.180Z,53.60
2024-02-29T03:31:41.205Z,52.81
2024-02-29T03:32:41.267Z,53.85
2024-02-29T03:33:41.353Z,56.93
2024-02-29T03:34:41.417Z,55.31
2024-02-29T03:35:41.496Z,56.19
2024-02-29T03:36:41.584Z,54.79
2024-02-29T03:37:41.596Z,55.51
2024-02-29T03:38:41.676Z,55.33
2024-02-29T03:39:41.742Z,52.67
2024-02-29T03:40:45.763Z,52.85
2024-02-29T03:41:41.778Z,52.99
2024-02-29T03:42:41.814Z,52.87
2024-02-29T03:43:41.772Z,52.38
2024-02-29T03:44:41.761Z,54.57
2024-02-29T03:45:41.777Z,53.40
2024-02-29T03:46:41.766Z,52.23
2024-02-29T03:47:41.816Z,53.79
2024-02-29T03:48:41.799Z,52.98
2024-02-29T03:49:41.769Z,52.10
2024-02-29T03:50:41.770Z,50.50
2024-02-29T03:51:41.794Z,52.19
2024-02-29T03:52:41.784Z,50.00
2024-02-29T03:53:41.786Z,50.46
2024-02-29T03:54:41.877Z,54.93
2024-02-29T03:55:41.791Z,52.26
2024-02-29T03:56:41.767Z,52.83
2024-02-29T03:57:41.842Z,53.39
2024-02-29T03:58:41.765Z,52.52
2024-02-29T03:59:41.775Z,53.74
2024-02-29T04:00:41.819Z,52.33
2024-02-29T04:01:41.819Z,50.00
2024-02-29T04:02:41.776Z,51.68
2024-02-29T04:03:41.921Z,53.22
2024-02-29T04:04:41.900Z,53.89
2024-02-29T04:05:41.987Z,51.07
2024-02-29T04:06:42.103Z,51.55
2024-02-29T04:07:42.088Z,53.27
2024-02-29T04:08:42.155Z,55.11
2024-02-29T04:09:42.257Z,53.13
2024-02-29T04:10:42.280Z,52.85
2024-02-29T04:11:42.341Z,52.81
2024-02-29T04:12:42.432Z,51.77
2024-02-29T04:13:42.463Z,52.46
2024-02-29T04:14:42.522Z,53.19
2024-02-29T04:15:42.735Z,51.53
2024-02-29T04:16:42.622Z,53.48
2024-02-29T04:17:42.728Z,51.45
2024-02-29T04:18:42.789Z,51.36
2024-02-29T04:19:42.845Z,51.23
2024-02-29T04:20:42.991Z,53.12
2024-02-29T04:21:42.969Z,51.09
2024-02-29T04:22:43.024Z,51.52
2024-02-29T04:23:43.105Z,51.85
2024-02-29T04:24:43.161Z,53.94
2024-02-29T04:25:43.226Z,52.60
2024-02-29T04:26:43.279Z,51.66
2024-02-29T04:27:43.423Z,52.12
2024-02-29T04:28:50.921Z,50.00
2024-02-29T04:29:50.909Z,50.00
2024-02-29T04:30:50.967Z,50.00
2024-02-29T04:31:58.567Z,50.00
2024-02-29T04:32:58.625Z,50.00
2024-02-29T04:33:58.603Z,50.00
2024-02-29T04:34:58.564Z,50.00
2024-02-29T04:35:58.662Z,50.00
2024-02-29T04:36:58.590Z,51.49
2024-02-29T04:37:58.570Z,50.47
2024-02-29T04:38:58.584Z,51.38
2024-02-29T04:39:58.597Z,51.31
2024-02-29T04:40:58.587Z,52.06
2024-02-29T04:41:58.599Z,52.65
2024-02-29T04:42:58.610Z,50.09
2024-02-29T04:43:58.573Z,53.66
2024-02-29T04:44:58.573Z,50.19
2024-02-29T04:45:58.631Z,50.62
2024-02-29T04:46:58.576Z,51.94
2024-02-29T04:47:58.643Z,52.71
2024-02-29T04:48:58.599Z,52.73
2024-02-29T04:49:58.581Z,54.14
2024-02-29T04:50:58.575Z,51.91
2024-02-29T04:51:58.594Z,51.20
2024-02-29T04:52:58.591Z,51.31
2024-02-29T04:53:58.596Z,50.73
2024-02-29T04:54:58.659Z,51.17
2024-02-29T04:55:58.603Z,51.42
2024-02-29T04:56:58.586Z,50.96
2024-02-29T04:57:58.610Z,50.06
2024-02-29T04:58:58.588Z,51.65
2024-02-29T04:59:58.593Z,52.81
2024-02-29T05:00:58.689Z,52.54
2024-02-29T05:01:58.659Z,54.43
2024-02-29T05:02:58.609Z,51.51
2024-02-29T05:03:58.640Z,53.38
2024-02-29T05:04:58.608Z,51.80
2024-02-29T05:05:58.614Z,51.00
2024-02-29T05:06:58.639Z,51.30
2024-02-29T05:07:58.627Z,52.32
2024-02-29T05:08:58.627Z,51.86
2024-02-29T05:09:58.651Z,52.48
2024-02-29T05:10:58.765Z,51.53
2024-02-29T05:11:58.733Z,51.49
2024-02-29T05:12:58.801Z,55.00
2024-02-29T05:13:58.839Z,51.99
2024-02-29T05:14:58.902Z,53.29
2024-02-29T05:15:58.963Z,54.04
2024-02-29T05:16:58.983Z,52.91
2024-02-29T05:17:59.071Z,53.66
2024-02-29T05:18:59.123Z,52.58
2024-02-29T05:19:59.145Z,53.43
2024-02-29T05:20:59.175Z,54.66
2024-02-29T05:21:59.312Z,52.80
2024-02-29T05:22:59.300Z,54.31
2024-02-29T05:23:59.373Z,55.90
2024-02-29T05:24:59.519Z,54.81
2024-02-29T05:25:59.523Z,55.40
2024-02-29T05:26:59.663Z,52.63
2024-02-29T05:27:59.718Z,54.38
2024-02-29T05:28:59.681Z,54.48
2024-02-29T05:29:59.764Z,55.63
2024-02-29T05:30:59.878Z,54.01
2024-02-29T05:31:59.911Z,56.10
2024-02-29T05:33:00.017Z,56.71
2024-02-29T05:34:00.100Z,53.84
2024-02-29T05:35:00.129Z,53.61
2024-02-29T05:36:00.195Z,53.18
2024-02-29T05:37:00.284Z,54.82
2024-02-29T05:38:00.341Z,55.17
2024-02-29T05:39:00.366Z,53.08
2024-02-29T05:40:00.440Z,53.97
2024-02-29T05:41:00.443Z,54.91
2024-02-29T05:42:00.488Z,53.76
2024-02-29T05:43:00.579Z,53.02
2024-02-29T05:44:00.556Z,52.86
2024-02-29T05:45:00.588Z,52.60
2024-02-29T05:46:00.641Z,53.52
2024-02-29T05:47:00.672Z,53.38
2024-02-29T05:48:00.855Z,52.34
2024-02-29T05:49:00.842Z,50.76
2024-02-29T05:50:00.798Z,53.46
2024-02-29T05:51:00.818Z,52.57
2024-02-29T05:52:00.924Z,50.59
2024-02-29T05:53:00.862Z,54.69
2024-02-29T05:54:00.908Z,53.01
2024-02-29T05:55:00.965Z,50.89
2024-02-29T05:56:00.934Z,52.42
2024-02-29T05:57:04.296Z,54.38
2024-02-29T05:58:01.018Z,53.43
2024-02-29T05:59:00.944Z,54.47
2024-02-29T06:00:00.949Z,53.47
2024-02-29T06:01:01.034Z,51.85
2024-02-29T06:02:01.095Z,52.25
2024-02-29T06:03:00.960Z,50.19
2024-02-29T06:04:01.102Z,52.19
2024-02-29T06:05:00.999Z,52.78
2024-02-29T06:06:00.948Z,52.02
2024-02-29T06:07:00.985Z,52.91
2024-02-29T06:08:01.002Z,52.49
2024-02-29T06:09:00.961Z,54.16
2024-02-29T06:10:00.992Z,53.90
2024-02-29T06:11:00.975Z,53.55
2024-02-29T06:12:00.956Z,55.37
2024-02-29T06:13:01.054Z,56.40
2024-02-29T06:14:00.981Z,54.33
2024-02-29T06:15:00.967Z,54.53
2024-02-29T06:16:00.976Z,53.88
2024-02-29T06:17:00.968Z,54.62
2024-02-29T06:18:01.022Z,53.89
2024-02-29T06:19:01.019Z,52.91
2024-02-29T06:20:00.963Z,54.60
2024-02-29T06:21:00.968Z,52.11
2024-02-29T06:22:00.991Z,52.36
2024-02-29T06:23:01.876Z,51.66
2024-02-29T06:24:00.967Z,51.19
2024-02-29T06:25:01.007Z,50.04
2024-02-29T06:26:00.954Z,52.54
2024-02-29T06:27:00.948Z,54.20
2024-02-29T06:28:00.993Z,53.84
2024-02-29T06:29:00.993Z,52.57
2024-02-29T06:30:00.965Z,51.89
2024-02-29T06:31:01.004Z,51.89
2024-02-29T06:32:00.993Z,50.00
2024-02-29T06:33:01.092Z,51.15
2024-02-29T06:34:01.096Z,52.15
2024-02-29T06:35:01.047Z,53.73
2024-02-29T06:36:01.067Z,52.41
2024-02-29T06:37:01.109Z,51.51
2024-02-29T06:38:01.108Z,54.01
2024-02-29T06:39:01.126Z,52.00
2024-02-29T06:40:01.289Z,56.09
2024-02-29T06:41:01.185Z,52.48
2024-02-29T06:42:01.231Z,54.10
2024-02-29T06:43:01.284Z,54.60
2024-02-29T06:44:01.246Z,53.44
2024-02-29T06:45:01.254Z,54.01
2024-02-29T06:46:01.385Z,53.88
2024-02-29T06:47:01.282Z,50.38
2024-02-29T06:48:01.364Z,50.71
2024-02-29T06:49:01.347Z,51.56
2024-02-29T06:50:01.426Z,50.10
2024-02-29T06:51:01.384Z,53.11
2024-02-29T06:52:01.435Z,51.14
2024-02-29T06:53:01.423Z,55.19
2024-02-29T06:54:01.461Z,51.19
2024-02-29T06:55:01.512Z,53.50
2024-02-29T06:56:01.504Z,51.34
2024-02-29T06:57:01.539Z,53.80
2024-02-29T06:58:01.590Z,54.12
2024-02-29T06:59:01.556Z,51.37
2024-02-29T07:00:01.575Z,53.05
2024-02-29T07:01:01.667Z,53.52
2024-02-29T07:02:01.656Z,54.69
2024-02-29T07:03:01.666Z,52.24
2024-02-29T07:04:01.739Z,51.99
2024-02-29T07:05:01.716Z,52.09
2024-02-29T07:06:01.721Z,52.28
2024-02-29T07:07:01.819Z,50.72
2024-02-29T07:08:01.771Z,51.86
2024-02-29T07:09:01.785Z,57.48
2024-02-29T07:10:01.931Z,54.76
2024-02-29T07:11:02.558Z,56.98
2024-02-29T07:12:01.852Z,57.54
2024-02-29T07:13:01.992Z,61.20
2024-02-29T07:14:01.927Z,59.33
2024-02-29T07:15:01.966Z,60.89
2024-02-29T07:16:02.025Z,64.38
2024-02-29T07:17:02.079Z,61.69
2024-02-29T07:18:02.183Z,60.11
2024-02-29T07:19:02.252Z,59.33
2024-02-29T07:20:02.343Z,59.84
2024-02-29T07:21:02.306Z,58.37
2024-02-29T07:22:02.397Z,56.87
2024-02-29T07:23:02.455Z,55.88
2024-02-29T07:24:02.520Z,59.83
2024-02-29T07:25:02.610Z,63.12
2024-02-29T07:26:02.666Z,67.47
2024-02-29T07:27:02.781Z,72.39
2024-02-29T07:28:02.820Z,69.77
2024-02-29T07:29:02.853Z,69.80
2024-02-29T07:30:02.924Z,67.00
2024-02-29T07:31:03.087Z,69.46
2024-02-29T07:32:03.054Z,71.44
2024-02-29T07:33:03.166Z,68.13
2024-02-29T07:34:03.274Z,66.50
2024-02-29T07:35:03.228Z,62.55
2024-02-29T07:36:03.310Z,60.15
2024-02-29T07:37:03.394Z,57.26
2024-02-29T07:38:03.397Z,58.87
2024-02-29T07:39:03.461Z,59.64
2024-02-29T07:40:03.608Z,53.93
2024-02-29T07:41:03.553Z,54.38
2024-02-29T07:42:03.588Z,50.99
2024-02-29T07:43:03.618Z,52.89
2024-02-29T07:44:03.607Z,55.60
2024-02-29T07:45:03.636Z,50.95
2024-02-29T07:46:03.679Z,53.41
2024-02-29T07:47:03.626Z,50.34
2024-02-29T07:48:03.677Z,52.02
2024-02-29T07:49:03.775Z,50.00
2024-02-29T07:50:03.698Z,52.40
2024-02-29T07:51:03.714Z,51.00
2024-02-29T07:52:03.752Z,51.37
2024-02-29T07:53:03.744Z,50.02
2024-02-29T07:54:03.767Z,51.53
2024-02-29T07:55:03.838Z,51.68
2024-02-29T07:56:03.810Z,50.00
2024-02-29T07:57:03.858Z,52.07
2024-02-29T07:58:03.905Z,51.04
2024-02-29T07:59:03.917Z,51.15
2024-02-29T08:00:03.963Z,53.10
2024-02-29T08:01:04.106Z,50.02
2024-02-29T08:02:04.952Z,52.27
2024-02-29T08:03:04.040Z,51.72
2024-02-29T08:04:04.165Z,50.12
2024-02-29T08:05:04.113Z,53.35
2024-02-29T08:06:04.139Z,51.03
2024-02-29T08:07:04.202Z,51.13
2024-02-29T08:08:04.224Z,50.77
2024-02-29T08:09:04.907Z,49.94
2024-02-29T08:10:04.356Z,51.25
2024-02-29T08:11:04.429Z,50.80
2024-02-29T08:12:04.478Z,50.53
2024-02-29T08:13:04.502Z,49.18
2024-02-29T08:14:04.445Z,49.10
2024-02-29T08:15:04.464Z,47.92
2024-02-29T08:16:04.489Z,44.08
2024-02-29T08:17:04.459Z,43.02
2024-02-29T08:18:04.469Z,50.67
2024-02-29T08:19:04.498Z,50.11
2024-02-29T08:20:04.456Z,52.49
2024-02-29T08:21:04.468Z,58.21
2024-02-29T08:22:04.547Z,56.19
2024-02-29T08:23:04.484Z,59.14
2024-02-29T08:24:04.484Z,54.41
2024-02-29T08:25:04.618Z,58.28
2024-02-29T08:26:04.496Z,57.58
2024-02-29T08:27:04.528Z,57.02
2024-02-29T08:28:04.643Z,55.04
2024-02-29T08:29:04.618Z,56.17
2024-02-29T08:30:04.645Z,56.61
2024-02-29T08:31:04.724Z,58.36
2024-02-29T08:32:04.713Z,55.64
2024-02-29T08:33:04.736Z,54.07
2024-02-29T08:34:04.714Z,54.20
2024-02-29T08:35:04.682Z,53.65
2024-02-29T08:36:04.657Z,53.71
2024-02-29T08:37:04.695Z,55.85
2024-02-29T08:38:04.674Z,51.89
2024-02-29T08:39:04.714Z,50.16
2024-02-29T08:40:04.729Z,50.00
2024-02-29T08:41:04.750Z,50.65
2024-02-29T08:42:04.751Z,50.00
2024-02-29T08:43:04.827Z,52.89
2024-02-29T08:44:04.786Z,50.96
2024-02-29T08:45:04.777Z,55.14
2024-02-29T08:46:04.798Z,52.91
2024-02-29T08:47:04.804Z,50.60
2024-02-29T08:48:04.873Z,52.68
2024-02-29T08:49:04.921Z,51.41
2024-02-29T08:50:04.927Z,51.60
2024-02-29T08:51:04.979Z,50.00
2024-02-29T08:52:05.190Z,50.52
2024-02-29T08:53:05.090Z,53.80
2024-02-29T08:54:07.578Z,51.47
2024-02-29T08:55:05.333Z,52.64
2024-02-29T08:56:05.333Z,50.50
2024-02-29T08:57:05.374Z,52.23
2024-02-29T08:58:05.500Z,52.94
2024-02-29T08:59:05.449Z,50.00
2024-02-29T09:00:05.488Z,51.94
2024-02-29T09:01:05.661Z,52.83
2024-02-29T09:02:05.648Z,52.33
2024-02-29T09:03:05.609Z,53.48
2024-02-29T09:04:05.661Z,51.92
2024-02-29T09:05:13.231Z,50.00
2024-02-29T09:06:13.181Z,50.00
2024-02-29T09:07:13.241Z,50.00
2024-02-29T09:08:13.185Z,50.00
2024-02-29T09:09:13.202Z,50.00
2024-02-29T09:10:13.209Z,52.20
2024-02-29T09:11:13.219Z,56.51
2024-02-29T09:12:13.202Z,65.81
2024-02-29T09:13:20.944Z,65.62
2024-02-29T09:14:14.200Z,65.68
2024-02-29T09:15:13.212Z,59.53
2024-02-29T09:16:13.240Z,59.68
2024-02-29T09:17:13.220Z,57.79
2024-02-29T09:18:13.264Z,58.30
2024-02-29T09:19:13.290Z,57.40
2024-02-29T09:20:13.231Z,52.68
2024-02-29T09:21:13.225Z,60.94
2024-02-29T09:22:13.265Z,63.92
2024-02-29T09:23:13.220Z,66.06
2024-02-29T09:24:15.646Z,66.23
2024-02-29T09:25:13.264Z,66.32
2024-02-29T09:26:13.227Z,66.27
2024-02-29T09:27:13.237Z,63.24
2024-02-29T09:28:13.294Z,57.83
2024-02-29T09:29:13.317Z,60.51
2024-02-29T09:30:13.231Z,61.12
2024-02-29T09:31:13.313Z,56.03
2024-02-29T09:32:13.241Z,52.08
2024-02-29T09:33:13.321Z,52.17
2024-02-29T09:34:13.263Z,51.35
2024-02-29T09:35:13.245Z,52.32
2024-02-29T09:36:13.236Z,55.10
2024-02-29T09:37:13.327Z,53.74
2024-02-29T09:38:13.267Z,55.13
2024-02-29T09:39:13.257Z,56.02
2024-02-29T09:40:13.272Z,52.58
2024-02-29T09:41:25.652Z,56.06
2024-02-29T09:42:15.409Z,51.08
2024-02-29T09:43:13.562Z,48.97
2024-02-29T09:44:13.526Z,48.37
2024-02-29T09:45:13.571Z,50.28
2024-02-29T09:46:13.690Z,48.49
2024-02-29T09:47:13.704Z,52.41
2024-02-29T09:48:13.744Z,50.00
2024-02-29T09:49:13.813Z,50.07
2024-02-29T09:50:13.841Z,54.14
2024-02-29T09:51:15.997Z,50.76
2024-02-29T09:52:14.120Z,49.06
2024-02-29T09:53:13.992Z,51.27
2024-02-29T09:54:14.038Z,51.05
2024-02-29T09:55:14.136Z,51.48
2024-02-29T09:56:14.168Z,52.06
2024-02-29T09:57:14.191Z,50.81
2024-02-29T09:58:14.313Z,52.08
2024-02-29T09:59:14.270Z,50.00
2024-02-29T10:00:14.332Z,51.82
2024-02-29T10:01:14.495Z,53.36
2024-02-29T10:02:14.437Z,59.84
2024-02-29T10:03:14.401Z,63.95
2024-02-29T10:04:14.508Z,67.79
2024-02-29T10:05:14.449Z,65.71
2024-02-29T10:06:14.474Z,64.68
2024-02-29T10:07:14.550Z,70.10
2024-02-29T10:08:14.529Z,69.29
2024-02-29T10:09:14.566Z,72.57
2024-02-29T10:10:14.656Z,74.68
2024-02-29T10:11:14.663Z,70.10
2024-02-29T10:12:14.629Z,68.75
2024-02-29T10:13:14.711Z,66.37
2024-02-29T10:14:14.617Z,69.36
2024-02-29T10:15:14.637Z,71.50
2024-02-29T10:16:14.837Z,70.58
2024-02-29T10:17:14.657Z,66.81
2024-02-29T10:18:14.676Z,68.60
2024-02-29T10:19:14.714Z,72.49
2024-02-29T10:20:14.683Z,67.02
2024-02-29T10:21:14.680Z,62.85
2024-02-29T10:22:14.711Z,64.35
2024-02-29T10:23:14.736Z,66.88
2024-02-29T10:24:14.720Z,67.92
2024-02-29T10:25:14.829Z,71.09
2024-02-29T10:26:14.772Z,72.85
2024-02-29T10:27:14.894Z,78.89
2024-02-29T10:28:14.914Z,76.98
2024-02-29T10:29:14.956Z,74.78
2024-02-29T10:30:15.032Z,75.41
2024-02-29T10:31:15.187Z,82.93
2024-02-29T10:32:15.142Z,86.44
2024-02-29T10:33:15.202Z,89.37
2024-02-29T10:34:15.392Z,91.74
2024-02-29T10:35:15.339Z,89.67
2024-02-29T10:36:15.381Z,90.04
2024-02-29T10:37:15.440Z,84.02
2024-02-29T10:38:15.486Z,83.21
2024-02-29T10:39:15.564Z,77.86
2024-02-29T10:40:15.669Z,78.03
2024-02-29T10:41:15.688Z,81.98
2024-02-29T10:42:15.765Z,83.97
2024-02-29T10:43:15.940Z,84.50
2024-02-29T10:44:15.890Z,81.98
2024-02-29T10:45:15.933Z,81.92
2024-02-29T10:46:16.069Z,75.07
2024-02-29T10:47:16.016Z,65.38
2024-02-29T10:48:16.035Z,67.79
2024-02-29T10:49:16.093Z,68.21
2024-02-29T10:50:16.037Z,69.17
2024-02-29T10:51:16.056Z,74.82
2024-02-29T10:52:16.142Z,73.74
2024-02-29T10:53:16.111Z,76.02
2024-02-29T10:54:16.111Z,76.96
2024-02-29T10:55:16.206Z,78.41
2024-02-29T10:56:16.115Z,80.03
2024-02-29T10:57:16.140Z,64.65
2024-02-29T10:58:16.189Z,58.17
2024-02-29T10:59:16.178Z,55.90
2024-02-29T11:00:21.238Z,56.26
2024-02-29T11:01:16.311Z,56.34
2024-02-29T11:02:16.221Z,56.44
2024-02-29T11:03:16.232Z,57.74
2024-02-29T11:04:16.316Z,58.76
2024-02-29T11:05:16.236Z,59.78
2024-02-29T11:06:16.228Z,60.38
2024-02-29T11:07:16.281Z,59.38
2024-02-29T11:08:16.216Z,58.47
2024-02-29T11:09:16.230Z,56.45
2024-02-29T11:10:16.289Z,57.83
2024-02-29T11:11:16.377Z,58.92
2024-02-29T11:12:16.216Z,56.80
2024-02-29T11:13:16.264Z,51.18
2024-02-29T11:14:16.334Z,51.85
2024-02-29T11:15:16.244Z,50.00
2024-02-29T11:16:16.261Z,51.68
2024-02-29T11:17:16.328Z,57.94
2024-02-29T11:18:16.270Z,62.58
2024-02-29T11:19:16.468Z,65.71
2024-02-29T11:20:16.299Z,65.68
2024-02-29T11:21:16.386Z,69.46
2024-02-29T11:22:16.594Z,67.77
2024-02-29T11:23:16.514Z,65.36
2024-02-29T11:24:16.578Z,55.79
2024-02-29T11:25:16.701Z,52.61
2024-02-29T11:26:16.720Z,52.85
2024-02-29T11:27:16.799Z,50.33
2024-02-29T11:28:16.943Z,51.60
2024-02-29T11:29:16.911Z,49.92
2024-02-29T11:30:16.911Z,50.68
2024-02-29T11:31:17.146Z,52.78
2024-02-29T11:32:17.048Z,51.26
2024-02-29T11:33:17.079Z,50.00
2024-02-29T11:34:17.017Z,50.58
2024-02-29T11:35:17.632Z,52.25
2024-02-29T11:36:17.029Z,58.09
2024-02-29T11:37:17.099Z,58.46
2024-02-29T11:38:25.085Z,62.52
2024-02-29T11:39:18.070Z,60.94
2024-02-29T11:40:17.249Z,58.20
2024-02-29T11:41:17.080Z,50.83
2024-02-29T11:42:17.060Z,40.57
2024-02-29T11:43:17.155Z,43.67
2024-02-29T11:44:17.083Z,50.00
2024-02-29T11:45:17.089Z,55.68
2024-02-29T11:46:17.171Z,54.05
2024-02-29T11:47:17.080Z,66.00
2024-02-29T11:48:17.107Z,74.58
2024-02-29T11:49:17.136Z,79.94
2024-02-29T11:50:17.083Z,87.03
2024-02-29T11:51:17.108Z,88.71
2024-02-29T11:52:17.143Z,88.39
2024-02-29T11:53:17.124Z,94.17
2024-02-29T11:54:17.135Z,92.87
2024-02-29T11:55:17.259Z,98.12
2024-02-29T11:56:17.360Z,99.40
2024-02-29T11:57:17.242Z,102.33
2024-02-29T11:58:17.429Z,121.13
2024-02-29T11:59:17.348Z,124.04
2024-02-29T12:00:22.411Z,120.84
2024-02-29T12:01:17.470Z,110.55
2024-02-29T12:02:17.489Z,99.58
2024-02-29T12:03:17.422Z,101.98
2024-02-29T12:04:17.406Z,104.16
2024-02-29T12:05:19.296Z,108.76
2024-02-29T12:06:17.589Z,113.50
2024-02-29T12:07:17.673Z,116.14
2024-02-29T12:08:17.679Z,123.42
2024-02-29T12:09:17.720Z,123.29
2024-02-29T12:10:17.873Z,113.11
2024-02-29T12:11:17.793Z,101.47
2024-02-29T12:12:17.836Z,108.66
2024-02-29T12:13:17.947Z,108.61
2024-02-29T12:14:17.910Z,104.04
2024-02-29T12:15:18.030Z,106.11
2024-02-29T12:16:18.010Z,101.36
2024-02-29T12:17:18.060Z,98.14
2024-02-29T12:18:18.121Z,100.28
2024-02-29T12:19:18.217Z,104.43
2024-02-29T12:20:18.312Z,110.39
2024-02-29T12:21:18.200Z,110.40
2024-02-29T12:22:18.284Z,104.91
2024-02-29T12:23:18.296Z,96.75
2024-02-29T12:24:18.329Z,90.97
2024-02-29T12:25:18.408Z,92.85
2024-02-29T12:26:18.646Z,86.43
2024-02-29T12:27:18.491Z,83.48
2024-02-29T12:28:18.534Z,86.44
2024-02-29T12:29:18.583Z,91.61
2024-02-29T12:30:18.620Z,97.86
2024-02-29T12:31:18.793Z,95.15
2024-02-29T12:32:18.721Z,100.33
2024-02-29T12:33:21.150Z,103.38
2024-02-29T12:34:18.809Z,103.62
2024-02-29T12:35:18.950Z,101.42
2024-02-29T12:36:18.900Z,91.81
2024-02-29T12:37:18.855Z,82.62
2024-02-29T12:38:18.783Z,73.46
2024-02-29T12:39:18.780Z,74.61
2024-02-29T12:40:18.801Z,68.67
2024-02-29T12:41:18.777Z,60.70
2024-02-29T12:42:18.790Z,60.40
2024-02-29T12:43:18.824Z,56.89
2024-02-29T12:44:18.800Z,55.45
2024-02-29T12:45:19.864Z,57.60
2024-02-29T12:46:18.813Z,63.28
2024-02-29T12:47:18.810Z,77.27
2024-02-29T12:48:18.786Z,82.15
2024-02-29T12:49:18.851Z,85.48
2024-02-29T12:50:18.778Z,86.98
2024-02-29T12:51:18.790Z,91.25
2024-02-29T12:52:18.842Z,90.44